Time;durP1;ratioP1;P1;durP2;ratioP2;P2;SDS_P1;SDS_P2;PMS_P1;PMS_P2;Temp;Humidity;BMP_temperature;BMP_pressure;BME280_temperature;BME280_humidity;BME280_pressure;Samples;Min_cycle;Max_cycle;Signal;HPM_P1;HPM_P2
2022/03/27 00:01:39;;;;;;;28.92;10.10;;;;;;;14.96;26.96;99020.47;4444838;32;20129;-80
2022/03/27 00:04:06;;;;;;;24.45;10.65;;;;;;;14.61;27.92;99020.28;4430841;32;20109;-80
2022/03/27 00:06:33;;;;;;;24.00;10.35;;;;;;;14.73;28.06;99021.50;4444392;32;20107;-80
2022/03/27 00:09:00;;;;;;;24.65;9.93;;;;;;;13.75;30.11;99009.19;4444612;32;20695;-80
2022/03/27 00:11:28;;;;;;;28.92;11.43;;;;;;;13.29;31.08;99008.38;4444784;32;20103;-80
2022/03/27 00:13:59;;;;;;;27.00;10.50;;;;;;;13.55;30.85;99012.56;4444364;32;20157;-80
2022/03/27 00:16:26;;;;;;;29.70;12.20;;;;;;;14.10;30.10;98999.94;4444692;32;20123;-80
2022/03/27 00:18:53;;;;;;;24.37;11.15;;;;;;;13.46;31.26;99005.16;4444218;32;20439;-80
2022/03/27 00:21:21;;;;;;;26.60;10.88;;;;;;;14.07;30.45;99008.72;4430564;32;20084;-80
2022/03/27 00:23:49;;;;;;;28.15;10.63;;;;;;;13.71;31.08;99011.03;4430556;32;20182;-79
2022/03/27 00:26:17;;;;;;;27.62;10.15;;;;;;;13.97;30.67;99015.19;4430432;32;20511;-80
2022/03/27 00:28:44;;;;;;;27.05;10.07;;;;;;;14.66;29.70;99018.31;4444386;32;20145;-79
2022/03/27 00:31:11;;;;;;;23.25;10.45;;;;;;;15.26;28.54;99026.88;4444361;32;20148;-80
2022/03/27 00:33:41;;;;;;;22.77;10.60;;;;;;;14.62;29.25;99026.31;4444169;32;20116;-80
2022/03/27 00:36:10;;;;;;;26.15;10.10;;;;;;;15.10;28.51;99025.03;4430400;32;20147;-80
2022/03/27 00:38:37;;;;;;;24.33;10.45;;;;;;;14.98;28.37;99027.28;4444156;32;20137;-80
2022/03/27 00:41:05;;;;;;;23.90;10.23;;;;;;;14.39;28.99;99027.28;4430143;32;20144;-80
2022/03/27 00:43:36;;;;;;;24.75;10.98;;;;;;;14.82;28.40;99028.88;4444206;32;20456;-80
2022/03/27 00:46:03;;;;;;;27.45;9.95;;;;;;;15.41;27.29;99034.84;4444179;32;20442;-80
2022/03/27 00:48:30;;;;;;;26.80;9.90;;;;;;;15.46;27.52;99035.50;4443805;32;20150;-80
2022/03/27 00:50:57;;;;;;;24.85;10.02;;;;;;;14.81;28.15;99024.59;4442563;32;20081;-80
2022/03/27 00:53:24;;;;;;;24.50;9.98;;;;;;;14.55;28.59;99028.31;4441210;32;20109;-80
2022/03/27 00:55:51;;;;;;;24.85;10.18;;;;;;;14.69;28.55;99031.19;4441031;32;20497;-80
2022/03/27 00:58:18;;;;;;;21.98;9.40;;;;;;;14.65;28.52;99027.00;4441268;32;20109;-80
2022/03/27 01:00:53;;;;;;;25.62;9.60;;;;;;;14.73;28.60;99029.28;4441259;32;20090;-80
2022/03/27 01:03:26;;;;;;;25.05;9.60;;;;;;;14.61;28.45;99038.47;4441118;32;20143;-79
2022/03/27 01:05:57;;;;;;;20.62;9.85;;;;;;;14.59;28.96;99034.25;4441097;32;20102;-79
2022/03/27 01:11:16;;;;;;;23.35;9.27;;;;;;;15.23;28.05;99032.22;4441204;32;20443;-80
2022/03/27 01:13:53;;;;;;;24.40;8.75;;;;;;;14.66;28.58;99033.06;4441212;32;20112;-80
2022/03/27 01:16:31;;;;;;;23.58;10.23;;;;;;;15.12;27.75;99024.06;4427171;32;20157;-80
2022/03/27 01:19:00;;;;;;;28.75;9.38;;;;;;;15.40;27.41;99027.97;4440898;32;20090;-79
2022/03/27 01:21:27;;;;;;;23.85;8.73;;;;;;;14.53;28.45;99030.16;4441082;32;20115;-79
2022/03/27 01:23:55;;;;;;;23.30;9.38;;;;;;;14.93;27.89;99028.41;4440818;32;20137;-80
2022/03/27 01:26:23;;;;;;;23.00;8.25;;;;;;;14.93;27.82;99029.25;4427244;32;20181;-80
2022/03/27 01:28:51;;;;;;;23.67;8.55;;;;;;;14.79;27.97;99029.03;4427145;32;20108;-80
2022/03/27 01:31:18;;;;;;;22.80;8.88;;;;;;;15.26;27.41;99033.81;4427062;32;20141;-80
2022/03/27 01:33:45;;;;;;;20.27;8.60;;;;;;;14.35;28.48;99023.09;4427166;32;20101;-80
2022/03/27 01:36:23;;;;;;;21.67;8.60;;;;;;;14.80;28.17;99022.91;4441087;32;20085;-79
2022/03/27 01:38:50;;;;;;;;;;;;;;;15.18;27.45;99028.13;4441319;32;20172;-80
2022/03/27 01:41:17;;;;;;;22.98;8.90;;;;;;;14.69;28.35;99022.56;4441069;32;20032;-80
2022/03/27 01:43:45;;;;;;;25.80;8.88;;;;;;;14.69;28.44;99017.34;4440787;32;20106;-80
2022/03/27 01:46:12;;;;;;;23.70;9.23;;;;;;;15.08;27.77;99012.09;4427048;32;20109;-80
2022/03/27 01:48:39;;;;;;;27.98;9.23;;;;;;;14.23;28.95;99014.09;4440923;32;20446;-80
2022/03/27 01:51:06;;;;;;;24.90;9.68;;;;;;;14.33;28.94;99017.97;4440761;32;20589;-80
2022/03/27 01:53:36;;;;;;;20.37;8.70;;;;;;;14.20;29.29;99016.81;4439867;32;20435;-79
2022/03/27 01:56:05;;;;;;;21.65;8.85;;;;;;;13.95;29.56;99014.41;4426882;32;20168;-79
2022/03/27 01:58:32;;;;;;;22.83;8.52;;;;;;;14.19;29.44;99018.56;4440621;32;20094;-79
2022/03/27 02:00:59;;;;;;;21.40;8.88;;;;;;;13.96;29.86;99025.63;4440796;32;20133;-79
2022/03/27 02:03:28;;;;;;;21.08;9.10;;;;;;;14.27;29.48;99025.22;4440514;32;20113;-79
2022/03/27 02:05:55;;;;;;;22.37;8.20;;;;;;;14.73;28.81;99022.34;4440407;32;20093;-80
2022/03/27 02:08:23;;;;;;;22.33;8.95;;;;;;;13.83;30.09;99020.94;4440745;32;20101;-80
2022/03/27 02:10:55;;;;;;;19.92;9.48;;;;;;;13.97;30.10;99014.34;4440801;32;20103;-80
2022/03/27 02:13:22;;;;;;;22.80;9.32;;;;;;;14.12;30.00;99024.91;4439412;32;20153;-80
2022/03/27 02:15:50;;;;;;;23.67;8.68;;;;;;;13.80;30.60;99021.03;4439475;32;20113;-80
2022/03/27 02:18:17;;;;;;;22.35;8.90;;;;;;;14.35;30.02;99031.72;4440510;32;20427;-80
2022/03/27 02:20:45;;;;;;;20.88;8.60;;;;;;;14.39;30.06;99032.47;4440616;32;20090;-80
2022/03/27 02:23:12;;;;;;;23.20;8.68;;;;;;;13.75;30.86;99030.78;4440687;32;20651;-80
2022/03/27 02:25:39;;;;;;;24.80;9.13;;;;;;;14.42;30.26;99033.16;4440432;32;20367;-80
2022/03/27 02:28:07;;;;;;;23.60;8.43;;;;;;;14.49;30.09;99040.75;4440665;32;20487;-80
2022/03/27 02:30:34;;;;;;;21.27;8.60;;;;;;;14.19;30.85;99034.16;4440608;32;20101;-80
2022/03/27 02:33:01;;;;;;;23.58;7.93;;;;;;;14.77;29.98;99036.88;4426574;32;20109;-80
2022/03/27 02:35:28;;;;;;;20.00;8.38;;;;;;;14.97;30.01;99043.78;4440503;32;20590;-79
2022/03/27 02:37:55;;;;;;;19.95;8.02;;;;;;;15.04;29.90;99039.16;4440609;32;20108;-79
2022/03/27 02:40:22;;;;;;;21.33;8.50;;;;;;;15.79;28.81;99044.34;4440454;32;20491;-80
2022/03/27 02:42:49;;;;;;;23.98;8.63;;;;;;;15.64;28.98;99052.88;4440507;32;20145;-80
2022/03/27 02:45:16;;;;;;;25.62;8.65;;;;;;;15.56;29.29;99054.97;4440472;32;20140;-80
2022/03/27 02:47:43;;;;;;;22.70;8.90;;;;;;;15.60;28.85;99056.53;4440284;32;20151;-80
2022/03/27 02:50:10;;;;;;;26.40;8.80;;;;;;;14.62;29.40;99057.47;4440571;32;20511;-80
2022/03/27 02:52:37;;;;;;;18.58;9.05;;;;;;;15.26;28.41;99058.06;4440471;32;20149;-80
2022/03/27 02:55:05;;;;;;;20.20;8.13;;;;;;;15.61;28.24;99056.44;4440211;32;20160;-80
2022/03/27 02:57:32;;;;;;;23.75;9.27;;;;;;;15.70;28.13;99063.00;4440400;32;20152;-80
2022/03/27 02:59:59;;;;;;;27.15;9.65;;;;;;;15.34;28.66;99062.94;4440494;32;20107;-80
2022/03/27 03:02:27;;;;;;;21.70;9.00;;;;;;;15.44;28.63;99061.59;4440208;32;20153;-80
2022/03/27 03:04:55;;;;;;;21.25;8.48;;;;;;;15.30;28.97;99062.19;4440243;32;20167;-80
2022/03/27 03:07:22;;;;;;;24.37;9.18;;;;;;;15.60;28.57;99066.94;4439190;32;20089;-80
2022/03/27 03:09:49;;;;;;;23.15;9.55;;;;;;;16.35;27.79;99063.28;4440228;32;20441;-80
2022/03/27 03:12:16;;;;;;;20.50;8.75;;;;;;;16.30;27.98;99066.13;4440334;32;20588;-80
2022/03/27 03:14:44;;;;;;;20.25;9.00;;;;;;;15.70;28.84;99078.59;4439028;32;20409;-80
2022/03/27 03:17:11;;;;;;;22.92;9.25;;;;;;;15.96;28.58;99077.38;4440364;32;20473;-80
2022/03/27 03:19:38;;;;;;;26.75;9.65;;;;;;;16.53;27.76;99083.22;4439830;32;20144;-80
2022/03/27 03:22:07;;;;;;;21.95;8.57;;;;;;;16.67;27.42;99085.94;4439992;32;20098;-80
2022/03/27 03:24:34;;;;;;;23.05;8.85;;;;;;;14.40;31.22;99086.94;4440182;32;20089;-80
2022/03/27 03:27:01;;;;;;;24.02;9.70;;;;;;;14.88;30.85;99087.50;4426275;32;20107;-80
2022/03/27 03:29:29;;;;;;;24.23;9.77;;;;;;;15.93;29.32;99095.72;4439859;32;20111;-80
2022/03/27 03:31:56;;;;;;;24.48;10.30;;;;;;;16.85;27.86;99101.63;4440123;32;20173;-80
2022/03/27 03:34:23;;;;;;;22.02;8.27;;;;;;;16.37;28.73;99103.97;4440014;32;20150;-80
2022/03/27 03:36:50;;;;;;;20.40;8.82;;;;;;;15.03;30.66;99098.09;4425969;32;20092;-80
2022/03/27 03:39:17;;;;;;;21.75;8.82;;;;;;;15.33;30.80;99095.88;4438752;32;20082;-80
2022/03/27 03:41:44;;;;;;;22.70;9.85;;;;;;;14.88;31.65;99103.09;4439960;32;20129;-80
2022/03/27 03:44:26;;;;;;;21.75;9.05;;;;;;;14.93;31.57;99104.59;4439713;32;20503;-80
2022/03/27 03:46:54;;;;;;;22.73;9.55;;;;;;;14.39;32.67;99107.75;4439903;32;20089;-80
2022/03/27 03:49:23;;;;;;;21.52;8.68;;;;;;;15.47;30.90;99103.03;4426161;32;20412;-79
2022/03/27 03:51:51;;;;;;;19.52;8.60;;;;;;;16.10;29.79;99111.38;4439530;32;20093;-80
2022/03/27 03:54:18;;;;;;;22.65;9.20;;;;;;;15.95;30.18;99103.44;4439809;32;20113;-80
2022/03/27 03:56:46;;;;;;;19.98;9.20;;;;;;;15.30;31.40;99103.81;4439565;32;20108;-80
2022/03/27 03:59:13;;;;;;;19.17;8.80;;;;;;;16.42;29.73;99107.19;4439651;32;20479;-80
2022/03/27 04:01:55;;;;;;;21.60;9.30;;;;;;;16.03;30.23;99117.78;4439793;32;20149;-80
2022/03/27 04:04:22;;;;;;;21.85;9.15;;;;;;;16.57;29.45;99115.16;4425611;32;20093;-80
2022/03/27 04:06:49;;;;;;;24.55;9.40;;;;;;;16.23;29.94;99115.97;4439627;32;20084;-80
2022/03/27 04:09:16;;;;;;;21.67;9.43;;;;;;;16.17;30.12;99115.38;4425627;32;20490;-80
2022/03/27 04:11:44;;;;;;;24.83;9.23;;;;;;;16.13;30.20;99119.03;4439287;32;20094;-80
2022/03/27 04:14:11;;;;;;;22.08;10.05;;;;;;;16.30;29.87;99118.22;4439408;32;20109;-80
2022/03/27 04:16:37;;;;;;;24.98;9.55;;;;;;;16.92;28.76;99114.25;4439445;32;20099;-80
2022/03/27 04:19:05;;;;;;;28.42;10.05;;;;;;;16.34;29.61;99117.16;4438923;32;20103;-80
2022/03/27 04:21:32;;;;;;;23.98;9.55;;;;;;;16.35;29.75;99126.63;4439345;32;20152;-80
2022/03/27 04:23:59;;;;;;;22.23;9.13;;;;;;;16.58;29.56;99138.53;4439281;32;20110;-80
2022/03/27 04:26:31;;;;;;;21.25;9.70;;;;;;;17.35;28.55;99135.47;4427025;32;20092;-80
2022/03/27 04:28:58;;;;;;;23.92;9.57;;;;;;;17.17;29.00;99139.91;4441374;32;20410;-80
2022/03/27 04:31:26;;;;;;;23.15;9.75;;;;;;;16.59;29.64;99145.44;4441450;32;20098;-80
2022/03/27 04:33:53;;;;;;;21.75;10.10;;;;;;;16.43;30.05;99141.91;4441276;32;20124;-80
2022/03/27 04:36:20;;;;;;;23.60;9.23;;;;;;;16.39;30.19;99143.81;4441537;32;20140;-80
2022/03/27 04:38:47;;;;;;;25.42;9.68;;;;;;;16.27;30.40;99143.56;4441173;32;20145;-81
2022/03/27 04:41:14;;;;;;;23.55;9.50;;;;;;;16.37;30.22;99153.44;4441503;32;20503;-80
2022/03/27 04:43:41;;;;;;;26.05;10.52;;;;;;;16.35;30.32;99157.06;4441448;32;20510;-80
2022/03/27 04:46:08;;;;;;;21.90;9.98;;;;;;;16.32;30.47;99157.22;4441129;32;20176;-80
2022/03/27 04:48:35;;;;;;;23.42;9.88;;;;;;;16.40;30.49;99155.94;4441195;32;20143;-80
2022/03/27 04:51:02;;;;;;;21.67;9.20;;;;;;;16.47;30.81;99156.44;4441402;32;20123;-80
2022/03/27 04:53:29;;;;;;;21.73;9.45;;;;;;;15.47;33.25;99159.44;4441148;32;20615;-80
2022/03/27 04:55:56;;;;;;;22.58;9.38;;;;;;;15.72;32.76;99164.38;4441210;32;20113;-80
2022/03/27 04:58:24;;;;;;;23.58;9.50;;;;;;;16.73;31.04;99163.88;4441294;32;20149;-80
2022/03/27 05:00:51;;;;;;;23.55;9.52;;;;;;;16.50;31.45;99174.56;4441126;32;20169;-80
2022/03/27 05:03:18;;;;;;;22.70;10.10;;;;;;;15.57;33.35;99165.91;4441240;32;20108;-80
2022/03/27 05:05:45;;;;;;;21.80;8.80;;;;;;;16.39;32.21;99174.25;4441085;32;20151;-80
2022/03/27 05:08:12;;;;;;;22.35;9.35;;;;;;;15.99;33.39;99170.09;4440914;32;20172;-80
2022/03/27 05:10:39;;;;;;;22.33;10.05;;;;;;;16.23;32.95;99179.31;4440068;32;20109;-80
2022/03/27 05:13:07;;;;;;;22.00;9.32;;;;;;;16.51;32.68;99172.78;4441177;32;20143;-80
2022/03/27 05:15:34;;;;;;;21.55;9.30;;;;;;;16.29;33.49;99173.00;4427081;32;20463;-80
2022/03/27 05:18:02;;;;;;;22.00;9.73;;;;;;;15.96;34.43;99180.66;4427292;32;20086;-80
2022/03/27 05:20:30;;;;;;;22.42;10.20;;;;;;;16.35;33.96;99183.09;4424472;32;20121;-80
2022/03/27 05:23:01;;;;;;;22.60;9.80;;;;;;;17.08;32.70;99189.91;4424533;32;20173;-80
2022/03/27 05:25:28;;;;;;;22.67;9.40;;;;;;;16.82;33.20;99188.62;4425733;32;20113;-80
2022/03/27 05:27:58;;;;;;;23.15;10.07;;;;;;;16.49;34.16;99197.16;4425526;32;20100;-80
2022/03/27 05:30:27;;;;;;;22.75;10.20;;;;;;;15.95;35.11;99197.16;4425705;32;20093;-80
2022/03/27 05:32:54;;;;;;;24.05;9.68;;;;;;;17.78;32.26;99196.69;4425779;32;20110;-80
2022/03/27 05:35:21;;;;;;;20.37;9.10;;;;;;;17.51;32.19;99198.97;4425414;32;20192;-81
2022/03/27 05:37:49;;;;;;;21.75;8.93;;;;;;;16.28;35.35;99211.22;4423944;32;20086;-80
2022/03/27 05:40:18;;;;;;;20.48;9.30;;;;;;;16.03;36.53;99213.25;4425727;32;20124;-80
2022/03/27 05:42:46;;;;;;;20.23;9.13;;;;;;;16.18;36.78;99215.16;4425502;32;20333;-80
2022/03/27 05:45:13;;;;;;;21.83;8.63;;;;;;;15.81;38.23;99223.81;4425481;32;20156;-80
2022/03/27 05:47:41;;;;;;;18.50;8.57;;;;;;;15.62;39.22;99219.44;4424405;32;20120;-80
2022/03/27 05:50:10;;;;;;;19.02;8.55;;;;;;;15.36;39.95;99218.88;4425377;32;20157;-80
2022/03/27 05:52:37;;;;;;;20.30;8.32;;;;;;;15.73;40.13;99221.53;4425526;32;20165;-80
2022/03/27 05:55:05;;;;;;;20.27;9.10;;;;;;;15.47;40.79;99227.03;4425442;32;20103;-80
2022/03/27 05:57:32;;;;;;;21.92;9.40;;;;;;;14.11;44.91;99227.41;4425462;32;20397;-80
2022/03/27 05:59:59;;;;;;;18.62;8.23;;;;;;;14.53;45.03;99232.72;4425657;32;20094;-80
2022/03/27 06:02:26;;;;;;;17.40;8.23;;;;;;;15.79;41.90;99230.84;4425583;32;20368;-80
2022/03/27 06:04:53;;;;;;;19.58;8.90;;;;;;;16.53;40.07;99242.12;4425308;32;20396;-81
2022/03/27 06:07:20;;;;;;;19.98;8.20;;;;;;;16.48;40.23;99236.28;4425533;32;20153;-81
2022/03/27 06:09:48;;;;;;;19.60;8.63;;;;;;;17.87;37.48;99243.19;4425331;32;20536;-81
2022/03/27 06:12:15;;;;;;;16.50;7.70;;;;;;;17.70;37.99;99239.78;4425441;32;20515;-80
2022/03/27 06:14:41;;;;;;;17.80;8.02;;;;;;;17.25;39.84;99247.28;4425289;32;20161;-80
2022/03/27 06:17:09;;;;;;;14.00;7.10;;;;;;;16.39;42.75;99245.41;4425344;32;20112;-81
2022/03/27 06:19:36;;;;;;;15.82;8.15;;;;;;;17.98;39.17;99245.22;4433897;32;20116;-81
2022/03/27 06:22:03;;;;;;;14.07;6.85;;;;;;;17.73;39.24;99244.84;4440747;32;20157;-81
2022/03/27 06:24:30;;;;;;;13.98;6.60;;;;;;;16.94;42.27;99247.97;4426714;32;20146;-81
2022/03/27 06:26:57;;;;;;;17.42;7.32;;;;;;;16.55;43.58;99250.72;4440709;32;20424;-81
2022/03/27 06:29:24;;;;;;;14.73;6.72;;;;;;;16.28;44.71;99247.69;4440535;32;20093;-81
2022/03/27 06:31:51;;;;;;;14.50;6.00;;;;;;;15.76;46.61;99257.03;4440652;32;20104;-80
2022/03/27 06:34:19;;;;;;;14.77;6.50;;;;;;;15.87;46.90;99250.41;4439464;32;20089;-80
2022/03/27 06:36:46;;;;;;;15.07;6.15;;;;;;;15.38;48.19;99254.28;4426736;32;20111;-80
2022/03/27 06:39:13;;;;;;;14.07;6.47;;;;;;;16.25;46.39;99258.22;4440556;32;20133;-81
2022/03/27 06:41:40;;;;;;;16.08;6.10;;;;;;;16.79;44.59;99251.31;4440563;32;20113;-81
2022/03/27 06:44:08;;;;;;;14.00;6.20;;;;;;;17.59;42.42;99262.03;4440504;32;20093;-80
2022/03/27 06:46:35;;;;;;;14.43;5.57;;;;;;;17.45;42.17;99258.47;4426844;32;20101;-80
2022/03/27 06:49:02;;;;;;;12.27;5.47;;;;;;;17.53;43.17;99270.16;4439005;32;20533;-81
2022/03/27 06:51:29;;;;;;;14.18;5.85;;;;;;;19.11;39.88;99262.41;4440556;32;20124;-81
2022/03/27 06:53:56;;;;;;;11.93;5.82;;;;;;;19.11;39.40;99264.19;4440355;32;20101;-81
2022/03/27 06:56:23;;;;;;;14.05;5.68;;;;;;;19.43;38.65;99262.28;4440551;32;20077;-81
2022/03/27 06:58:51;;;;;;;15.52;5.30;;;;;;;19.54;38.34;99257.25;4440374;32;20157;-81
2022/03/27 07:04:04;;;;;;;10.90;5.22;;;;;;;18.56;40.39;99268.13;4440436;32;20368;-81
2022/03/27 07:06:31;;;;;;;10.55;4.53;;;;;;;19.13;39.27;99263.16;4440345;32;20168;-81
2022/03/27 07:09:00;;;;;;;11.60;5.10;;;;;;;18.60;41.10;99263.56;4440158;32;20134;-81
2022/03/27 07:11:27;;;;;;;10.48;4.45;;;;;;;18.75;40.84;99265.38;4426594;32;20124;-81
2022/03/27 07:13:54;;;;;;;10.98;4.32;;;;;;;18.92;39.98;99270.47;4440196;32;20171;-81
2022/03/27 07:16:21;;;;;;;12.32;4.65;;;;;;;17.49;44.18;99270.41;4440349;32;20111;-81
2022/03/27 07:18:49;;;;;;;12.55;5.30;;;;;;;18.10;41.83;99272.44;4439747;32;20108;-81
2022/03/27 07:21:20;;;;;;;11.95;4.95;;;;;;;19.07;39.90;99266.97;4425815;32;20163;-81
2022/03/27 07:23:47;;;;;;;11.20;5.10;;;;;;;19.04;39.91;99268.94;4440240;32;20103;-81
2022/03/27 07:26:17;;;;;;;11.18;5.12;;;;;;;19.48;38.99;99271.56;4440266;32;20521;-81
2022/03/27 07:28:44;;;;;;;11.73;5.00;;;;;;;19.83;38.27;99271.22;4440051;32;20165;-81
2022/03/27 07:31:11;;;;;;;10.57;4.30;;;;;;;20.63;36.80;99264.44;4440137;32;20142;-81
2022/03/27 07:33:38;;;;;;;11.07;4.50;;;;;;;20.01;37.35;99261.41;4440070;32;20199;-81
2022/03/27 07:36:06;;;;;;;9.93;4.10;;;;;;;20.56;36.64;99260.56;4440037;32;20162;-81
2022/03/27 07:38:33;;;;;;;10.55;4.30;;;;;;;20.67;36.25;99271.19;4439993;32;20108;-81
2022/03/27 07:41:00;;;;;;;10.80;3.85;;;;;;;20.52;35.91;99278.25;4439895;32;20143;-81
2022/03/27 07:43:28;;;;;;;12.10;3.67;;;;;;;17.77;40.98;99269.87;4439402;32;20506;-81
2022/03/27 07:45:55;;;;;;;9.02;3.50;;;;;;;17.65;41.28;99276.50;4439800;32;20104;-81
2022/03/27 07:48:22;;;;;;;9.05;3.65;;;;;;;17.61;41.17;99281.06;4439706;32;20153;-81
2022/03/27 07:50:54;;;;;;;11.15;4.18;;;;;;;16.92;42.93;99286.31;4439855;32;20149;-80
2022/03/27 07:53:22;;;;;;;9.57;3.37;;;;;;;16.03;45.64;99283.56;4439888;32;20085;-81
2022/03/27 07:55:49;;;;;;;9.82;3.50;;;;;;;15.57;46.97;99286.41;4439589;32;20102;-81
2022/03/27 07:58:17;;;;;;;9.32;3.90;;;;;;;16.45;44.32;99284.16;4439566;32;20157;-81
2022/03/27 08:00:44;;;;;;;10.45;4.15;;;;;;;16.54;44.59;99287.25;4440276;32;20145;-81
2022/03/27 08:03:11;;;;;;;9.30;3.92;;;;;;;16.93;43.96;99279.34;4441709;32;20104;-81
2022/03/27 08:05:38;;;;;;;9.70;3.95;;;;;;;16.77;43.44;99287.03;4441207;32;20098;-81
2022/03/27 08:08:05;;;;;;;9.65;3.78;;;;;;;17.50;42.38;99292.97;4440207;32;20085;-81
2022/03/27 08:10:33;;;;;;;8.65;3.87;;;;;;;17.79;42.06;99289.75;4441416;32;20594;-81
2022/03/27 08:13:00;;;;;;;9.52;4.12;;;;;;;18.35;39.64;99291.06;4441665;32;20475;-81
2022/03/27 08:15:27;;;;;;;9.25;3.80;;;;;;;17.76;41.25;99294.28;4441364;32;20154;-81
2022/03/27 08:17:54;;;;;;;8.05;3.20;;;;;;;19.28;37.98;99292.81;4427764;32;20128;-81
2022/03/27 08:20:24;;;;;;;8.93;3.65;;;;;;;18.30;39.45;99293.09;4441465;32;20120;-81
2022/03/27 08:22:51;;;;;;;8.80;3.60;;;;;;;18.02;40.48;99295.50;4441595;32;20094;-81
2022/03/27 08:28:04;;;;;;;9.73;3.35;;;;;;;17.94;40.55;99293.28;4429626;32;20174;-81
2022/03/27 08:30:31;;;;;;;9.68;3.62;;;;;;;18.21;39.98;99284.00;4441531;32;20117;-81
2022/03/27 08:32:58;;;;;;;8.30;3.50;;;;;;;17.65;41.68;99292.16;4441557;32;20081;-81
2022/03/27 08:35:25;;;;;;;7.87;3.40;;;;;;;18.35;39.63;99285.00;4441352;32;20137;-81
2022/03/27 08:37:53;;;;;;;10.00;3.87;;;;;;;19.85;37.09;99295.53;4441407;32;20118;-81
2022/03/27 08:40:20;;;;;;;9.57;3.92;;;;;;;20.18;35.79;99292.63;4441485;32;20101;-81
2022/03/27 08:42:48;;;;;;;9.40;3.87;;;;;;;21.51;33.00;99295.34;4441450;32;20104;-81
2022/03/27 08:45:15;;;;;;;9.35;3.62;;;;;;;21.83;33.15;99290.53;4441388;32;20098;-81
2022/03/27 08:47:42;;;;;;;9.43;4.10;;;;;;;22.37;32.01;99286.78;4441386;32;20463;-81
2022/03/27 08:50:29;;;;;;;10.10;4.40;;;;;;;22.42;31.47;99293.38;4441358;32;20117;-81
2022/03/27 08:53:00;;;;;;;;;;;;;;;20.41;34.26;99291.16;4441777;32;20474;-81
2022/03/27 08:55:52;;;;;;;9.02;3.85;;;;;;;19.36;36.36;99288.81;4441321;32;20371;-81
2022/03/27 08:58:22;;;;;;;8.20;3.30;;;;;;;18.04;39.60;99288.44;4441241;32;20436;-80
2022/03/27 09:00:49;;;;;;;12.07;4.30;;;;;;;18.24;39.04;99289.97;4427524;32;20501;-81
2022/03/27 09:03:16;;;;;;;12.37;4.18;;;;;;;17.45;41.21;99284.56;4441317;32;20086;-81
2022/03/27 09:05:43;;;;;;;9.80;3.80;;;;;;;18.70;38.12;99275.22;4427303;32;20081;-81
2022/03/27 09:08:11;;;;;;;10.82;3.95;;;;;;;18.61;37.98;99289.66;4441110;32;20440;-81
2022/03/27 09:10:40;;;;;;;11.23;4.60;;;;;;;19.30;36.75;99291.78;4441204;32;20456;-81
2022/03/27 09:13:26;;;;;;;9.80;3.85;;;;;;;19.55;36.60;99285.09;4426772;32;20161;-81
2022/03/27 09:16:01;;;;;;;13.62;5.03;;;;;;;19.03;37.21;99291.63;4441266;32;20452;-81
2022/03/27 09:18:58;;;;;;;11.45;5.18;;;;;;;19.83;35.89;99293.00;4427106;32;20164;-81
2022/03/27 09:21:29;;;;;;;9.77;4.37;;;;;;;20.51;34.98;99298.38;4441338;32;20145;-81
2022/03/27 09:23:59;;;;;;;10.98;4.57;;;;;;;20.17;35.16;99297.00;4441180;32;20090;-81
2022/03/27 09:26:27;;;;;;;9.65;4.00;;;;;;;21.49;33.42;99291.16;4427492;32;20069;-81
2022/03/27 09:29:05;;;;;;;9.10;4.15;;;;;;;23.15;31.80;99286.34;4440917;32;20113;-81
2022/03/27 09:31:32;;;;;;;9.20;4.18;;;;;;;23.67;29.90;99299.91;4441321;32;20117;-81
2022/03/27 09:34:02;;;;;;;11.70;4.62;;;;;;;22.48;31.34;99298.19;4441147;32;20440;-81
2022/03/27 09:36:34;;;;;;;10.10;4.05;;;;;;;20.71;34.43;99296.28;4441078;32;20146;-81
2022/03/27 09:39:06;;;;;;;11.45;5.00;;;;;;;20.18;35.00;99297.84;4427030;32;20173;-81
2022/03/27 09:41:39;;;;;;;10.45;4.53;;;;;;;19.75;37.23;99297.03;4441194;32;20492;-80
2022/03/27 09:44:11;;;;;;;9.60;4.15;;;;;;;20.12;35.86;99300.87;4440917;32;20215;-80
2022/03/27 09:47:00;;;;;;;11.43;4.60;;;;;;;20.15;35.52;99298.06;4440957;32;20446;-80
2022/03/27 09:49:30;;;;;;;11.10;3.80;;;;;;;20.97;34.58;99299.84;4426953;32;20139;-80
2022/03/27 09:52:00;;;;;;;10.30;4.68;;;;;;;21.42;33.15;99295.13;4441024;32;20108;-80
2022/03/27 09:54:29;;;;;;;8.40;3.53;;;;;;;21.70;32.60;99294.09;4427007;32;20093;-81
2022/03/27 09:56:56;;;;;;;10.25;3.45;;;;;;;19.02;36.95;99287.31;4427204;32;20123;-81
2022/03/27 09:59:41;;;;;;;15.40;4.18;;;;;;;19.41;36.47;99291.16;4440857;32;20491;-81
2022/03/27 10:02:21;;;;;;;10.95;4.72;;;;;;;18.79;38.16;99291.25;4440950;32;20115;-81
2022/03/27 10:04:59;;;;;;;10.38;4.20;;;;;;;20.19;34.85;99287.28;4440674;32;20447;-81
2022/03/27 10:07:32;;;;;;;10.20;4.20;;;;;;;22.99;30.24;99292.75;4427158;32;20437;-81
2022/03/27 10:09:59;;;;;;;9.85;4.55;;;;;;;22.90;30.30;99274.19;4426931;32;20153;-81
2022/03/27 10:12:31;;;;;;;9.00;4.43;;;;;;;23.16;30.73;99277.50;4440857;32;20202;-81
2022/03/27 10:15:01;;;;;;;10.55;4.22;;;;;;;23.07;29.80;99277.25;4426872;32;20097;-81
2022/03/27 10:17:29;;;;;;;9.70;4.53;;;;;;;23.88;30.04;99280.75;4426995;32;20081;-81
2022/03/27 10:20:17;;;;;;;11.05;4.07;;;;;;;23.36;29.13;99280.28;4440439;32;20145;-81
2022/03/27 10:23:09;;;;;;;9.90;4.55;;;;;;;23.11;30.34;99280.47;4440862;32;20165;-81
2022/03/27 10:25:45;;;;;;;11.45;4.75;;;;;;;23.55;28.85;99284.19;4432909;32;20090;-81
2022/03/27 10:28:12;;;;;;;10.25;4.53;;;;;;;21.07;32.16;99279.94;4426793;32;20093;-81
2022/03/27 10:30:41;;;;;;;11.98;4.50;;;;;;;21.20;31.94;99278.16;4440636;32;20084;-81
2022/03/27 10:33:09;;;;;;;11.82;4.80;;;;;;;21.55;31.59;99278.44;4427091;32;20506;-81
2022/03/27 10:35:36;;;;;;;7.82;3.60;;;;;;;22.26;30.46;99278.81;4440449;32;20128;-81
2022/03/27 10:38:17;;;;;;;11.55;4.90;;;;;;;22.23;30.68;99270.22;4440669;32;20157;-81
2022/03/27 10:41:15;;;;;;;13.30;4.68;;;;;;;22.61;29.99;99273.62;4426847;32;20328;-81
2022/03/27 10:44:00;;;;;;;8.40;3.67;;;;;;;23.37;29.27;99266.16;4440711;32;20115;-81
2022/03/27 10:46:29;;;;;;;9.68;4.10;;;;;;;23.23;29.48;99270.81;4426859;32;20085;-81
2022/03/27 10:49:16;;;;;;;9.35;4.18;;;;;;;23.41;29.44;99269.44;4440472;32;20613;-81
2022/03/27 10:51:45;;;;;;;9.18;4.25;;;;;;;24.18;28.30;99269.59;4426717;32;20098;-81
2022/03/27 10:54:20;;;;;;;10.55;4.53;;;;;;;24.27;27.64;99268.03;4426670;32;20098;-81
2022/03/27 10:56:52;;;;;;;9.45;4.00;;;;;;;24.06;27.62;99273.22;4426642;32;20108;-81
2022/03/27 10:59:27;;;;;;;9.50;4.05;;;;;;;25.00;26.14;99278.75;4440464;32;20089;-81
2022/03/27 11:01:56;;;;;;;10.07;4.50;;;;;;;22.52;29.34;99272.50;4440548;32;20444;-81
2022/03/27 11:04:36;;;;;;;10.05;4.53;;;;;;;22.98;28.53;99266.56;4426555;32;20116;-81
2022/03/27 11:07:15;;;;;;;9.93;4.55;;;;;;;24.63;26.51;99258.97;4440499;32;20148;-81
2022/03/27 11:09:44;;;;;;;11.35;4.25;;;;;;;24.83;26.32;99258.19;4440290;32;20082;-81
2022/03/27 11:12:31;;;;;;;11.00;4.50;;;;;;;24.47;26.36;99254.97;4440569;32;20089;-81
2022/03/27 11:15:00;;;;;;;10.77;4.75;;;;;;;25.37;25.45;99257.22;4440322;32;20158;-81
2022/03/27 11:17:31;;;;;;;11.15;4.45;;;;;;;24.44;27.09;99251.72;4440441;32;20404;-81
2022/03/27 11:19:59;;;;;;;9.68;4.22;;;;;;;24.38;26.94;99255.69;4440015;32;20149;-81
2022/03/27 11:22:52;;;;;;;11.68;4.40;;;;;;;20.89;30.99;99244.41;4426504;32;20153;-81
2022/03/27 11:25:38;;;;;;;10.02;4.20;;;;;;;21.89;30.25;99245.41;4426548;32;20131;-81
2022/03/27 11:28:16;;;;;;;9.98;4.30;;;;;;;23.90;27.23;99252.47;4440187;32;20089;-81
2022/03/27 11:30:53;;;;;;;10.70;4.53;;;;;;;23.64;27.75;99250.09;4440221;32;20124;-81
2022/03/27 11:33:22;;;;;;;8.77;3.67;;;;;;;24.64;25.29;99248.28;4440159;32;20113;-81
2022/03/27 11:36:04;;;;;;;9.35;4.10;;;;;;;23.59;26.98;99246.13;4425239;32;20152;-81
2022/03/27 11:38:35;;;;;;;10.00;4.50;;;;;;;24.18;26.83;99241.44;4440056;32;20097;-81
2022/03/27 11:41:25;;;;;;;8.43;3.75;;;;;;;23.75;26.59;99245.78;4426241;32;20111;-81
2022/03/27 11:43:54;;;;;;;9.95;3.90;;;;;;;23.81;27.52;99242.66;4440001;32;20169;-81
2022/03/27 11:46:28;;;;;;;9.50;3.80;;;;;;;23.52;26.74;99232.56;4425965;32;20101;-81